createdAt,value
2023-01-30T00:00:22.829Z,3.00
2023-01-30T00:02:51.246Z,2.90
2023-01-30T00:05:18.380Z,2.90
2023-01-30T00:07:47.069Z,2.90
2023-01-30T00:10:14.292Z,2.90
2023-01-30T00:12:41.813Z,2.80
2023-01-30T00:15:09.655Z,2.80
2023-01-30T00:17:36.968Z,2.80
2023-01-30T00:20:06.250Z,2.90
2023-01-30T00:22:33.235Z,2.80
2023-01-30T00:25:00.470Z,2.90
2023-01-30T00:27:27.517Z,2.90
2023-01-30T00:30:02.782Z,2.80
2023-01-30T00:32:30.292Z,2.80
2023-01-30T00:34:58.258Z,2.90
2023-01-30T00:37:26.633Z,2.80
2023-01-30T00:39:53.830Z,2.90
2023-01-30T00:42:39.692Z,2.90
2023-01-30T00:45:29.598Z,2.80
2023-01-30T00:47:57.478Z,2.90
2023-01-30T00:50:24.591Z,2.90
2023-01-30T00:52:53.128Z,3.00
2023-01-30T00:55:20.552Z,2.90
2023-01-30T00:57:47.584Z,3.00
2023-01-30T01:00:17.957Z,3.00
2023-01-30T01:02:45.081Z,3.00
2023-01-30T01:05:12.293Z,2.90
2023-01-30T01:07:39.781Z,3.00
2023-01-30T01:10:16.243Z,2.90
2023-01-30T01:12:44.603Z,2.90
2023-01-30T01:15:12.714Z,2.90
2023-01-30T01:17:40.287Z,3.00
2023-01-30T01:20:09.907Z,2.90
2023-01-30T01:22:37.112Z,3.00
2023-01-30T01:25:05.552Z,3.00
2023-01-30T01:27:34.109Z,2.90
2023-01-30T01:30:02.350Z,3.00
2023-01-30T01:32:29.672Z,3.00
2023-01-30T01:34:56.694Z,3.00
2023-01-30T01:37:23.848Z,3.10
2023-01-30T01:40:09.550Z,3.10
2023-01-30T01:42:39.206Z,3.10
2023-01-30T01:45:18.541Z,3.10
2023-01-30T01:47:54.356Z,3.10
2023-01-30T01:50:27.259Z,3.10
2023-01-30T01:52:57.519Z,3.10
2023-01-30T01:55:25.263Z,3.10
2023-01-30T01:57:57.325Z,3.20
2023-01-30T02:00:25.810Z,3.20
2023-01-30T02:02:58.259Z,3.20
2023-01-30T02:05:30.383Z,3.20
2023-01-30T02:08:04.462Z,3.20
2023-01-30T02:10:41.886Z,3.20
2023-01-30T02:13:10.289Z,3.10
2023-01-30T02:15:37.312Z,3.10
2023-01-30T02:18:04.932Z,3.20
2023-01-30T02:20:52.251Z,3.20
2023-01-30T02:23:52.954Z,3.10
2023-01-30T02:26:55.341Z,3.10
2023-01-30T02:30:24.112Z,3.20
2023-01-30T02:33:07.869Z,3.20
2023-01-30T02:35:45.931Z,3.20
2023-01-30T02:38:33.320Z,3.30
2023-01-30T02:41:13.341Z,3.20
2023-01-30T02:43:50.445Z,3.20
2023-01-30T02:46:23.050Z,3.20
2023-01-30T02:48:57.516Z,3.20
2023-01-30T02:51:29.340Z,3.20
2023-01-30T02:53:57.725Z,3.20
2023-01-30T02:56:24.709Z,3.30
2023-01-30T02:58:57.836Z,3.30
2023-01-30T03:01:45.854Z,3.30
2023-01-30T03:04:37.869Z,3.30
2023-01-30T03:07:22.513Z,3.30
2023-01-30T03:09:58.909Z,3.30
2023-01-30T03:12:38.446Z,3.30
2023-01-30T03:15:12.924Z,3.30
2023-01-30T03:17:44.178Z,3.30
2023-01-30T03:20:14.877Z,3.30
2023-01-30T03:22:42.037Z,3.40
2023-01-30T03:25:11.386Z,3.50
2023-01-30T03:27:39.531Z,3.40
2023-01-30T03:30:08.507Z,3.40
2023-01-30T03:32:35.663Z,3.40
2023-01-30T03:35:02.844Z,3.40
2023-01-30T03:37:31.617Z,3.40
2023-01-30T03:39:59.390Z,3.40
2023-01-30T03:42:27.094Z,3.30
2023-01-30T03:44:54.077Z,3.30
2023-01-30T03:47:21.188Z,3.40
2023-01-30T03:49:48.315Z,3.40
2023-01-30T03:52:15.219Z,3.30
2023-01-30T03:54:43.626Z,3.30
2023-01-30T03:57:10.571Z,3.30
2023-01-30T03:59:37.719Z,3.40
2023-01-30T04:02:04.735Z,3.40
2023-01-30T04:04:32.027Z,3.40
2023-01-30T04:06:58.964Z,3.40
2023-01-30T04:09:26.522Z,3.40
2023-01-30T04:11:54.822Z,3.40
2023-01-30T04:14:21.909Z,3.40
2023-01-30T04:16:48.919Z,3.40
2023-01-30T04:19:16.069Z,3.40
2023-01-30T04:21:43.055Z,3.40
2023-01-30T04:24:10.272Z,3.40
2023-01-30T04:26:37.526Z,3.50
2023-01-30T04:29:05.927Z,3.50
2023-01-30T04:31:33.232Z,3.50
2023-01-30T04:34:00.393Z,3.50
2023-01-30T04:36:29.215Z,3.60
2023-01-30T04:38:59.292Z,3.60
2023-01-30T04:41:26.387Z,3.60
2023-01-30T04:43:53.509Z,3.60
2023-01-30T04:46:22.020Z,3.60
2023-01-30T04:48:49.034Z,3.60
2023-01-30T04:51:16.001Z,3.60
2023-01-30T04:53:42.988Z,3.60
2023-01-30T04:56:10.094Z,3.60
2023-01-30T04:58:37.237Z,3.70
2023-01-30T05:01:16.451Z,3.70
2023-01-30T05:03:44.821Z,3.70
2023-01-30T05:06:11.763Z,3.70
2023-01-30T05:08:38.948Z,3.70
2023-01-30T05:11:06.099Z,3.70
2023-01-30T05:13:33.332Z,3.70
2023-01-30T05:16:00.660Z,3.70
2023-01-30T05:18:27.636Z,3.70
2023-01-30T05:21:05.054Z,3.70
2023-01-30T05:23:32.640Z,3.70
2023-01-30T05:25:59.981Z,3.60
2023-01-30T05:28:27.281Z,3.60
2023-01-30T05:30:54.297Z,3.70
2023-01-30T05:33:21.469Z,3.60
2023-01-30T05:35:49.299Z,3.60
2023-01-30T05:38:17.570Z,3.70
2023-01-30T05:40:44.460Z,3.70
2023-01-30T05:43:11.491Z,3.80
2023-01-30T05:45:39.254Z,3.80
2023-01-30T05:48:06.783Z,3.80
2023-01-30T05:50:33.985Z,3.80
2023-01-30T05:53:00.876Z,3.80
2023-01-30T05:55:29.189Z,3.80
2023-01-30T05:57:56.083Z,3.80
2023-01-30T06:00:23.169Z,3.80
2023-01-30T06:02:50.124Z,3.90
2023-01-30T06:05:17.356Z,3.80
2023-01-30T06:07:44.502Z,3.80
2023-01-30T06:10:11.864Z,3.80
2023-01-30T06:12:40.123Z,3.80
2023-01-30T06:15:08.425Z,3.90
2023-01-30T06:17:35.529Z,3.80
2023-01-30T06:20:02.470Z,3.80
2023-01-30T06:22:29.506Z,3.90
2023-01-30T06:24:56.619Z,3.90
2023-01-30T06:27:23.580Z,3.90
2023-01-30T06:29:52.001Z,3.90
2023-01-30T06:32:19.051Z,3.90
2023-01-30T06:34:46.154Z,3.90
2023-01-30T06:37:13.135Z,4.00
2023-01-30T06:39:41.083Z,4.00
2023-01-30T06:42:08.331Z,3.90
2023-01-30T06:44:35.344Z,3.90
2023-01-30T06:47:03.752Z,3.90
2023-01-30T06:49:30.678Z,3.90
2023-01-30T06:51:57.843Z,4.00
2023-01-30T06:54:24.849Z,4.00
2023-01-30T06:56:51.840Z,4.00
2023-01-30T06:59:18.785Z,4.00
2023-01-30T07:01:45.848Z,4.00
2023-01-30T07:04:14.265Z,3.90
2023-01-30T07:06:41.302Z,3.90
2023-01-30T07:09:08.424Z,4.00
2023-01-30T07:11:35.467Z,4.40
2023-01-30T07:14:02.697Z,4.70
2023-01-30T07:16:30.766Z,4.50
2023-01-30T07:18:58.643Z,4.40
2023-01-30T07:21:27.446Z,4.30
2023-01-30T07:23:54.461Z,4.20
2023-01-30T07:26:21.422Z,4.10
2023-01-30T07:28:48.404Z,4.10
2023-01-30T07:31:15.338Z,4.10
2023-01-30T07:33:42.366Z,4.10
2023-01-30T07:36:10.008Z,4.00
2023-01-30T07:38:38.315Z,4.00
2023-01-30T07:41:05.775Z,3.90
2023-01-30T07:43:32.760Z,4.00
2023-01-30T07:46:01.347Z,4.00
2023-01-30T07:48:28.376Z,4.00
2023-01-30T07:50:58.972Z,3.90
2023-01-30T07:53:26.089Z,4.00
2023-01-30T07:55:54.380Z,4.00
2023-01-30T07:58:21.325Z,3.90
2023-01-30T08:00:48.295Z,3.90
2023-01-30T08:03:17.096Z,4.00
2023-01-30T08:05:46.786Z,3.90
2023-01-30T08:08:14.011Z,3.90
2023-01-30T08:10:41.279Z,3.90
2023-01-30T08:13:09.620Z,4.00
2023-01-30T08:15:36.786Z,4.10
2023-01-30T08:18:03.995Z,4.10
2023-01-30T08:20:31.064Z,4.10
2023-01-30T08:23:00.008Z,4.20
2023-01-30T08:25:27.004Z,4.10
2023-01-30T08:27:54.062Z,4.20
2023-01-30T08:30:23.417Z,4.10
2023-01-30T08:32:50.451Z,4.20
2023-01-30T08:35:17.866Z,4.20
2023-01-30T08:37:45.100Z,4.20
2023-01-30T08:40:13.463Z,4.20
2023-01-30T08:42:40.417Z,4.30
2023-01-30T08:45:08.717Z,4.30
2023-01-30T08:47:37.210Z,4.40
2023-01-30T08:50:05.176Z,4.40
2023-01-30T08:52:33.027Z,4.50
2023-01-30T08:55:00.137Z,4.50
2023-01-30T08:57:27.156Z,4.50
2023-01-30T08:59:54.232Z,4.60
2023-01-30T09:02:21.286Z,4.60
2023-01-30T09:04:49.673Z,4.60
2023-01-30T09:07:16.665Z,4.60
2023-01-30T09:09:43.703Z,4.70
2023-01-30T09:12:10.815Z,4.80
2023-01-30T09:14:37.774Z,4.80
2023-01-30T09:17:04.776Z,4.70
2023-01-30T09:19:31.916Z,4.80
2023-01-30T09:22:00.232Z,4.90
2023-01-30T09:24:27.769Z,4.90
2023-01-30T09:27:00.038Z,5.00
2023-01-30T09:29:28.137Z,5.00
2023-01-30T09:31:56.524Z,5.00
2023-01-30T09:34:27.573Z,5.10
2023-01-30T09:36:54.702Z,5.10
2023-01-30T09:39:23.076Z,5.10
2023-01-30T09:42:05.392Z,5.10
2023-01-30T09:45:04.424Z,5.20
2023-01-30T09:47:42.401Z,5.30
2023-01-30T09:50:29.768Z,5.20
2023-01-30T09:53:04.065Z,5.30
2023-01-30T09:55:37.484Z,5.30
2023-01-30T09:58:04.787Z,5.30
2023-01-30T10:00:36.343Z,5.40
2023-01-30T10:03:11.318Z,5.40
2023-01-30T10:05:44.944Z,5.40
2023-01-30T10:08:34.728Z,5.50
2023-01-30T10:11:16.216Z,5.50
2023-01-30T10:14:02.694Z,5.50
2023-01-30T10:16:39.052Z,5.50
2023-01-30T10:19:45.256Z,5.60
2023-01-30T10:22:32.009Z,5.60
2023-01-30T10:25:13.629Z,5.60
2023-01-30T10:27:50.773Z,5.60
2023-01-30T10:30:18.653Z,5.80
2023-01-30T10:32:52.691Z,5.90
2023-01-30T10:35:25.993Z,6.00
2023-01-30T10:37:59.987Z,6.10
2023-01-30T10:40:34.960Z,6.10
2023-01-30T10:43:15.499Z,6.20
2023-01-30T10:45:52.408Z,6.20
2023-01-30T10:48:47.666Z,6.20
2023-01-30T10:51:28.139Z,6.20
2023-01-30T10:54:02.117Z,6.20
2023-01-30T10:56:38.717Z,6.20
2023-01-30T10:59:24.038Z,6.30
2023-01-30T11:02:00.487Z,6.30
2023-01-30T11:04:33.094Z,6.20
2023-01-30T11:07:02.237Z,6.30
2023-01-30T11:09:40.826Z,6.30
2023-01-30T11:12:08.032Z,6.40
2023-01-30T11:14:54.374Z,6.40
2023-01-30T11:20:13.593Z,6.40
2023-01-30T11:23:01.252Z,6.40
2023-01-30T11:25:30.017Z,6.50
2023-01-30T11:28:03.133Z,6.50
2023-01-30T11:30:37.758Z,6.60
2023-01-30T11:33:13.880Z,6.60
2023-01-30T11:35:53.666Z,6.60
2023-01-30T11:38:26.391Z,6.70
2023-01-30T11:41:06.354Z,6.80
2023-01-30T11:43:34.768Z,6.80
2023-01-30T11:46:13.284Z,6.90
2023-01-30T11:49:39.870Z,7.00
2023-01-30T11:51:54.532Z,7.10
2023-01-30T11:54:34.335Z,7.10
2023-01-30T11:57:08.649Z,7.10
2023-01-30T11:59:47.663Z,7.10
2023-01-30T12:02:24.277Z,7.10
2023-01-30T12:04:56.114Z,7.20
2023-01-30T12:07:26.257Z,7.20
2023-01-30T12:09:55.089Z,7.30
2023-01-30T12:12:33.103Z,7.30
2023-01-30T12:15:26.584Z,7.20
2023-01-30T12:18:03.568Z,7.20
2023-01-30T12:20:43.808Z,7.20
2023-01-30T12:23:21.514Z,7.20
2023-01-30T12:26:08.112Z,7.20
2023-01-30T12:28:47.352Z,7.20
2023-01-30T12:31:23.181Z,7.20
2023-01-30T12:33:54.632Z,7.20
2023-01-30T12:36:36.999Z,7.20
2023-01-30T12:39:23.386Z,7.20
2023-01-30T12:42:25.738Z,7.10
2023-01-30T12:45:21.467Z,7.10
2023-01-30T12:48:17.724Z,7.20
2023-01-30T12:51:00.098Z,7.30
2023-01-30T12:53:37.698Z,7.30
2023-01-30T12:56:29.174Z,7.40
2023-01-30T12:59:07.133Z,7.40
2023-01-30T13:01:46.110Z,7.40
2023-01-30T13:04:28.190Z,7.40
2023-01-30T13:07:10.666Z,7.50
2023-01-30T13:10:07.256Z,7.50
2023-01-30T13:12:45.422Z,7.60
2023-01-30T13:15:26.286Z,7.60
2023-01-30T13:18:08.464Z,7.50
2023-01-30T13:20:50.603Z,7.60
2023-01-30T13:23:27.260Z,7.60
2023-01-30T13:26:04.413Z,7.60
2023-01-30T13:28:37.018Z,7.50
2023-01-30T13:31:11.422Z,7.60
2023-01-30T13:33:43.772Z,7.50
2023-01-30T13:36:18.231Z,7.50
2023-01-30T13:38:58.124Z,7.50
2023-01-30T13:41:30.026Z,7.40
2023-01-30T13:44:00.543Z,7.50
2023-01-30T13:46:31.063Z,7.40
2023-01-30T13:49:12.173Z,7.40
2023-01-30T13:51:49.916Z,7.40
2023-01-30T13:54:34.257Z,7.40
2023-01-30T13:57:13.805Z,7.50
2023-01-30T14:00:29.491Z,7.50
2023-01-30T14:03:33.722Z,7.40
2023-01-30T14:06:14.450Z,7.40
2023-01-30T14:08:59.598Z,7.40
2023-01-30T14:11:40.839Z,7.60
2023-01-30T14:14:30.602Z,7.60
2023-01-30T14:17:12.297Z,7.60
2023-01-30T14:20:07.302Z,7.60
2023-01-30T14:22:41.168Z,7.40
2023-01-30T14:25:35.435Z,7.30
2023-01-30T14:29:06.711Z,7.10
2023-01-30T14:31:53.444Z,7.10
2023-01-30T14:34:46.486Z,7.10
2023-01-30T14:37:49.499Z,7.10
2023-01-30T14:40:48.555Z,7.00
2023-01-30T14:43:50.889Z,7.10
2023-01-30T14:46:58.187Z,7.00
2023-01-30T14:49:34.725Z,7.00
2023-01-30T14:52:05.378Z,7.10
2023-01-30T14:54:50.154Z,7.30
2023-01-30T14:57:27.980Z,7.40
2023-01-30T15:05:46.640Z,7.60
2023-01-30T15:08:20.391Z,7.60
2023-01-30T15:11:12.871Z,7.60
2023-01-30T15:13:52.517Z,7.60
2023-01-30T15:16:51.234Z,7.50
2023-01-30T15:20:32.147Z,7.40
2023-01-30T15:23:35.538Z,7.40
2023-01-30T15:26:21.551Z,7.30
2023-01-30T15:29:02.605Z,7.30
2023-01-30T15:31:29.776Z,7.20
2023-01-30T15:33:57.400Z,7.20
2023-01-30T15:36:31.354Z,7.30
2023-01-30T15:39:03.754Z,7.20
2023-01-30T15:41:33.557Z,7.10
2023-01-30T15:44:39.771Z,7.10
2023-01-30T15:47:42.484Z,7.00
2023-01-30T15:50:10.866Z,7.00
2023-01-30T15:52:46.354Z,7.00
2023-01-30T15:55:20.128Z,7.00
2023-01-30T15:57:52.248Z,7.00
2023-01-30T16:00:28.161Z,7.00
2023-01-30T16:02:55.989Z,7.00
2023-01-30T16:05:25.542Z,6.90
2023-01-30T16:07:56.692Z,6.90
2023-01-30T16:10:27.968Z,6.90
2023-01-30T16:12:57.151Z,6.90
2023-01-30T16:15:31.477Z,6.90
2023-01-30T16:18:05.513Z,6.90
2023-01-30T16:21:01.678Z,6.90
2023-01-30T16:23:35.733Z,6.90
2023-01-30T16:26:04.343Z,6.90
2023-01-30T16:28:32.285Z,6.80
2023-01-30T16:31:01.956Z,6.90
2023-01-30T16:33:35.664Z,6.90
2023-01-30T16:36:04.059Z,6.80
2023-01-30T16:38:44.839Z,6.80
2023-01-30T16:41:29.698Z,6.80
2023-01-30T16:44:14.806Z,6.80
2023-01-30T16:46:56.573Z,6.80
2023-01-30T16:49:37.772Z,6.80
2023-01-30T16:52:14.961Z,6.80
2023-01-30T16:54:48.488Z,6.80
2023-01-30T16:57:36.199Z,6.80
2023-01-30T17:00:09.741Z,6.80
2023-01-30T17:02:40.833Z,6.90
2023-01-30T17:05:19.075Z,6.90
2023-01-30T17:07:47.409Z,7.00
2023-01-30T17:10:51.549Z,6.90
2023-01-30T17:13:34.068Z,7.00
2023-01-30T17:16:32.450Z,7.00
2023-01-30T17:19:00.840Z,7.00
2023-01-30T17:21:31.353Z,7.00
2023-01-30T17:24:01.773Z,7.00
2023-01-30T17:26:31.208Z,7.10
2023-01-30T17:28:58.794Z,7.10
2023-01-30T17:31:26.885Z,7.10
2023-01-30T17:33:54.140Z,7.10
2023-01-30T17:36:26.541Z,7.10
2023-01-30T17:38:53.753Z,7.10
2023-01-30T17:41:22.976Z,7.00
2023-01-30T17:43:51.443Z,7.00
2023-01-30T17:46:19.019Z,7.00
2023-01-30T17:48:46.165Z,7.00
2023-01-30T17:51:14.417Z,7.10
2023-01-30T17:53:41.891Z,7.10
2023-01-30T17:56:17.978Z,7.10
2023-01-30T17:58:45.164Z,7.10
2023-01-30T18:01:16.092Z,7.00
2023-01-30T18:03:44.881Z,7.00
2023-01-30T18:06:14.348Z,7.10
2023-01-30T18:08:41.691Z,7.10
2023-01-30T18:11:11.680Z,7.10
2023-01-30T18:13:39.666Z,7.10
2023-01-30T18:16:09.770Z,7.10
2023-01-30T18:18:38.048Z,7.10
2023-01-30T18:21:05.524Z,7.20
2023-01-30T18:23:32.561Z,7.20
2023-01-30T18:25:59.516Z,7.20
2023-01-30T18:28:26.446Z,7.10
2023-01-30T18:30:53.505Z,7.10
2023-01-30T18:33:20.489Z,7.10
2023-01-30T18:35:48.856Z,7.10
2023-01-30T18:38:16.069Z,7.10
2023-01-30T18:40:43.051Z,7.20
2023-01-30T18:43:10.299Z,7.20
2023-01-30T18:45:37.311Z,7.20
2023-01-30T18:48:04.782Z,7.20
2023-01-30T18:50:31.853Z,7.20
2023-01-30T18:53:00.447Z,7.30
2023-01-30T18:55:27.532Z,7.20
2023-01-30T18:57:54.636Z,7.20
2023-01-30T19:00:23.294Z,7.20
2023-01-30T19:02:54.460Z,7.30
2023-01-30T19:05:21.595Z,7.20
2023-01-30T19:07:48.744Z,7.20
2023-01-30T19:10:18.231Z,7.20
2023-01-30T19:13:04.493Z,7.20
2023-01-30T19:15:31.598Z,7.20
2023-01-30T19:17:58.666Z,7.20
2023-01-30T19:20:26.545Z,7.20
2023-01-30T19:22:54.909Z,7.20
2023-01-30T19:25:23.769Z,7.30
2023-01-30T19:27:50.780Z,7.30
2023-01-30T19:30:18.674Z,7.30
2023-01-30T19:32:46.072Z,7.20
2023-01-30T19:35:13.144Z,7.20
2023-01-30T19:37:40.164Z,7.20
2023-01-30T19:40:09.400Z,7.20
2023-01-30T19:42:40.385Z,7.30
2023-01-30T19:45:12.259Z,7.30
2023-01-30T19:47:39.351Z,7.30
2023-01-30T19:50:08.372Z,7.30
2023-01-30T19:52:36.512Z,7.30
2023-01-30T19:55:04.703Z,7.30
2023-01-30T19:57:31.653Z,7.20
2023-01-30T19:59:59.971Z,7.20
2023-01-30T20:02:27.908Z,7.30
2023-01-30T20:04:56.993Z,7.20
2023-01-30T20:07:23.980Z,7.20
2023-01-30T20:09:50.881Z,7.20
2023-01-30T20:12:17.737Z,7.20
2023-01-30T20:14:44.722Z,7.30
2023-01-30T20:17:14.273Z,7.20
2023-01-30T20:19:41.227Z,7.20
2023-01-30T20:22:08.441Z,7.20
2023-01-30T20:24:35.689Z,7.20
2023-01-30T20:27:04.036Z,7.30
2023-01-30T20:29:31.183Z,7.30
2023-01-30T20:31:58.517Z,7.20
2023-01-30T20:34:27.121Z,7.20
2023-01-30T20:36:54.121Z,7.10
2023-01-30T20:39:21.722Z,7.20
2023-01-30T20:41:49.227Z,7.20
2023-01-30T20:44:16.269Z,7.20
2023-01-30T20:46:45.999Z,7.20
2023-01-30T20:49:15.252Z,7.20
2023-01-30T20:51:44.263Z,7.10
2023-01-30T20:54:13.704Z,7.10
2023-01-30T20:56:43.622Z,7.20
2023-01-30T20:59:12.660Z,7.20
2023-01-30T21:01:40.522Z,7.20
2023-01-30T21:04:10.033Z,7.10
2023-01-30T21:06:44.093Z,7.10
2023-01-30T21:09:16.318Z,7.10
2023-01-30T21:11:43.816Z,7.10
2023-01-30T21:14:10.866Z,7.10
2023-01-30T21:16:38.546Z,7.10
2023-01-30T21:19:08.521Z,7.10
2023-01-30T21:21:39.191Z,7.10
2023-01-30T21:24:09.411Z,7.00
2023-01-30T21:26:41.568Z,6.90
2023-01-30T21:29:09.203Z,7.00
2023-01-30T21:31:37.673Z,6.90
2023-01-30T21:34:05.254Z,6.90
2023-01-30T21:36:32.280Z,6.80
2023-01-30T21:39:18.002Z,6.90
2023-01-30T21:42:05.488Z,6.80
2023-01-30T21:44:39.115Z,6.70
2023-01-30T21:47:07.188Z,6.60
2023-01-30T21:49:36.560Z,6.50
2023-01-30T21:52:04.326Z,6.60
2023-01-30T21:54:31.326Z,6.50
2023-01-30T21:56:59.639Z,6.50
2023-01-30T21:59:26.754Z,6.40
2023-01-30T22:01:53.790Z,6.40
2023-01-30T22:04:20.953Z,6.50
2023-01-30T22:06:48.092Z,6.50
2023-01-30T22:09:15.984Z,6.50
2023-01-30T22:11:43.394Z,6.50
2023-01-30T22:14:14.725Z,6.50
2023-01-30T22:16:42.076Z,6.50
2023-01-30T22:19:09.532Z,6.50
2023-01-30T22:21:40.125Z,6.50
2023-01-30T22:24:09.397Z,6.40
2023-01-30T22:26:36.776Z,6.30
2023-01-30T22:29:06.021Z,6.20
2023-01-30T22:31:38.555Z,6.10
2023-01-30T22:34:05.557Z,6.00
2023-01-30T22:36:34.915Z,5.90
2023-01-30T22:39:03.609Z,5.90
2023-01-30T22:41:34.859Z,5.90
2023-01-30T22:44:04.648Z,6.10
2023-01-30T22:46:36.195Z,6.20
2023-01-30T22:49:05.836Z,6.30
2023-01-30T22:51:34.679Z,6.30
2023-01-30T22:54:05.043Z,6.30
2023-01-30T22:56:37.568Z,6.20
2023-01-30T22:59:05.276Z,6.10
2023-01-30T23:01:37.155Z,6.10
2023-01-30T23:04:07.394Z,6.00
2023-01-30T23:06:34.822Z,6.00
2023-01-30T23:09:03.174Z,6.00
2023-01-30T23:11:33.151Z,6.00
2023-01-30T23:14:07.570Z,6.00
2023-01-30T23:16:39.143Z,6.00
2023-01-30T23:19:07.767Z,6.00
2023-01-30T23:21:39.369Z,6.00
2023-01-30T23:24:10.190Z,6.00
2023-01-30T23:26:41.295Z,6.00
2023-01-30T23:29:13.191Z,5.80
2023-01-30T23:31:43.436Z,5.70
2023-01-30T23:34:15.329Z,5.80
2023-01-30T23:36:42.809Z,5.80
2023-01-30T23:39:13.620Z,5.70
2023-01-30T23:41:41.697Z,5.60
2023-01-30T23:44:09.659Z,5.70
2023-01-30T23:46:41.440Z,5.80
2023-01-30T23:49:12.278Z,5.90
2023-01-30T23:51:41.969Z,5.90
2023-01-30T23:54:10.247Z,5.90
2023-01-30T23:56:41.084Z,5.80
2023-01-30T23:59:09.025Z,6.00
